Time;durP1;ratioP1;P1;durP2;ratioP2;P2;SDS_P1;SDS_P2;PMS_P1;PMS_P2;Temp;Humidity;BMP_temperature;BMP_pressure;BME280_temperature;BME280_humidity;BME280_pressure;Samples;Min_cycle;Max_cycle;Signal;HPM_P1;HPM_P2
2023/07/26 00:02:05;;;;;;;;;;;;;;;;;;;;;
2023/07/26 00:05:49;;;;;;;8.50;5.50;;;;;;;16.72;77.28;99137.33;126687;1307;114952;-61
2023/07/26 00:09:44;;;;;;;14.40;4.90;;;;;;;16.64;77.07;99139.82;126723;1286;126897;-61
2023/07/26 00:13:12;;;;;;;5.00;4.50;;;;;;;16.57;77.08;99146.79;126641;1289;114819;-63
2023/07/26 00:16:50;;;;;;;9.70;5.30;;;;;;;16.52;77.01;99150.88;126856;1286;114896;-61
2023/07/26 00:20:52;;;;;;;7.50;5.00;;;;;;;16.47;77.16;99152.73;126835;1288;114919;-61
2023/07/26 00:24:41;;;;;;;7.20;4.40;;;;;;;16.44;77.34;99151.46;125667;1297;114959;-62
2023/07/26 00:28:42;;;;;;;;;;;;;;;;;;;;;
2023/07/26 00:32:38;;;;;;;;;;;;;;;;;;;;;
2023/07/26 00:35:59;;;;;;;6.00;4.80;;;;;;;16.29;77.54;99159.97;125786;1302;114887;-62
2023/07/26 00:39:25;;;;;;;;;;;;;;;;;;;;;
2023/07/26 00:43:11;;;;;;;6.70;4.80;;;;;;;16.18;77.24;99164.41;126464;1308;114900;-63
2023/07/26 00:46:54;;;;;;;;;;;;;;;;;;;;;
2023/07/26 00:50:57;;;;;;;6.00;4.10;;;;;;;16.08;77.55;99161.73;126643;1308;115781;-61
2023/07/26 00:54:45;;;;;;;;;;;;;;;;;;;;;
2023/07/26 00:58:31;;;;;;;5.10;4.20;;;;;;;15.96;77.38;99163.31;125595;1301;115844;-61
2023/07/26 01:02:02;;;;;;;6.20;4.20;;;;;;;15.91;77.47;99171.91;125865;1303;114920;-61
2023/07/26 01:05:40;;;;;;;;;;;;;;;;;;;;;
2023/07/26 01:09:43;;;;;;;;;;;;;;;;;;;;;
2023/07/26 01:13:46;;;;;;;;;;;;;;;;;;;;;
2023/07/26 01:17:38;;;;;;;7.60;4.10;;;;;;;15.78;77.48;99162.45;126592;1308;114945;-61
2023/07/26 01:21:20;;;;;;;;;;;;;;;;;;;;;
2023/07/26 01:24:41;;;;;;;;;;;;;;;;;;;;;
2023/07/26 01:28:45;;;;;;;5.80;4.00;;;;;;;15.66;77.82;99168.29;126410;1312;115319;-62
2023/07/26 01:32:15;;;;;;;;;;;;;;;;;;;;;
2023/07/26 01:36:07;;;;;;;6.00;3.90;;;;;;;15.57;77.69;99170.59;126828;1302;114781;-61
2023/07/26 01:39:49;;;;;;;6.00;3.90;;;;;;;15.53;77.82;99176.48;127066;1306;114897;-61
2023/07/26 01:43:28;;;;;;;5.10;4.10;;;;;;;15.51;78.04;99177.39;126808;1291;129757;-61
2023/07/26 01:46:59;;;;;;;6.60;3.60;;;;;;;15.47;77.73;99177.73;127442;1302;116372;-62
2023/07/26 01:50:41;;;;;;;7.80;3.20;;;;;;;15.41;77.93;99179.65;127470;1282;115649;-61
2023/07/26 01:54:36;;;;;;;5.20;3.30;;;;;;;15.38;77.77;99186.12;127860;1277;114900;-61
2023/07/26 01:58:02;;;;;;;4.30;2.80;;;;;;;15.34;77.98;99196.69;127618;1296;114853;-62
2023/07/26 02:05:47;;;;;;;4.90;3.40;;;;;;;15.29;78.07;99189.02;127354;1302;115297;-60
2023/07/26 02:09:40;;;;;;;;;;;;;;;;;;;;;
2023/07/26 02:13:41;;;;;;;8.50;3.80;;;;;;;15.23;78.29;99190.58;126342;1295;114862;-61
2023/07/26 02:17:27;;;;;;;5.80;3.20;;;;;;;15.19;78.36;99190.79;125858;1314;114951;-61
2023/07/26 02:20:53;;;;;;;;;;;;;;;;;;;;;
2023/07/26 02:24:39;;;;;;;;;;;;;;;;;;;;;
2023/07/26 02:28:17;;;;;;;6.30;3.70;;;;;;;15.12;78.66;99209.90;126004;1297;115023;-61
2023/07/26 02:31:59;;;;;;;;;;;;;;;;;;;;;
2023/07/26 02:35:28;;;;;;;5.00;3.80;;;;;;;15.09;78.91;99216.48;126250;1286;114951;-62
2023/07/26 02:39:18;;;;;;;10.00;4.00;;;;;;;15.05;79.02;99222.21;126712;1296;128461;-62
2023/07/26 02:42:32;;;;;;;4.70;4.00;;;;;;;15.03;79.02;99223.63;127306;1303;114951;-62
2023/07/26 02:46:33;;;;;;;;;;;;;;;;;;;;;
2023/07/26 02:50:12;;;;;;;;;;;;;;;;;;;;;
2023/07/26 02:54:16;;;;;;;10.20;5.00;;;;;;;14.99;79.80;99231.32;126583;1295;114934;-62
2023/07/26 02:58:08;;;;;;;9.20;5.00;;;;;;;14.96;79.90;99229.42;126946;1295;128956;-62
2023/07/26 03:02:10;;;;;;;7.10;5.60;;;;;;;14.94;80.19;99236.59;126315;1290;115317;-62
2023/07/26 03:06:10;;;;;;;;;;;;;;;;;;;;;
2023/07/26 03:10:09;;;;;;;11.10;6.30;;;;;;;14.88;80.59;99243.54;124678;1304;114972;-62
2023/07/26 03:18:09;;;;;;;;;;;;;;;;;;;;;
2023/07/26 03:22:12;;;;;;;13.50;7.80;;;;;;;14.85;81.42;99262.53;128096;1280;128834;-62
2023/07/26 03:25:57;;;;;;;;;;;;;;;;;;;;;
2023/07/26 03:30:15;;;;;;;7.90;6.50;;;;;;;14.82;81.68;99268.71;126524;1290;114917;-62
2023/07/26 03:33:42;;;;;;;;;;;;;;;;;;;;;
2023/07/26 03:37:01;;;;;;;8.40;6.70;;;;;;;14.81;81.94;99283.69;124101;1316;114945;-61
2023/07/26 03:40:22;;;;;;;7.80;7.00;;;;;;;14.82;82.14;99283.30;124584;1310;114968;-62
2023/07/26 03:43:46;;;;;;;11.10;7.50;;;;;;;14.80;82.15;99289.56;124540;1324;130065;-62
2023/07/26 03:47:17;;;;;;;;;;;;;;;;;;;;;
2023/07/26 03:50:41;;;;;;;12.60;7.10;;;;;;;14.75;82.27;99296.75;123961;1330;115240;-61
2023/07/26 03:53:52;;;;;;;9.50;7.20;;;;;;;14.75;82.64;99302.71;124428;1331;114992;-62
2023/07/26 03:57:49;;;;;;;10.50;6.60;;;;;;;14.75;82.70;99308.30;124403;1313;114934;-61
2023/07/26 04:01:28;;;;;;;9.40;6.80;;;;;;;14.77;82.92;99310.66;124867;1307;128770;-63
2023/07/26 04:05:01;;;;;;;;;;;;;;;;;;;;;
2023/07/26 04:08:55;;;;;;;;;;;;;;;;;;;;;
2023/07/26 04:13:04;;;;;;;12.20;7.40;;;;;;;14.77;83.30;99325.73;126106;1295;114944;-62
2023/07/26 04:17:13;;;;;;;10.90;7.30;;;;;;;14.77;83.24;99329.18;126478;1309;114982;-62
2023/07/26 04:21:07;;;;;;;10.80;6.70;;;;;;;14.75;83.46;99338.10;125586;1319;128595;-63
2023/07/26 04:24:27;;;;;;;;;;;;;;;;;;;;;
2023/07/26 04:28:22;;;;;;;11.70;7.20;;;;;;;14.75;83.61;99348.89;124887;1326;114936;-61
2023/07/26 04:32:11;;;;;;;9.80;6.80;;;;;;;14.76;83.67;99353.89;124514;1308;114864;-62
2023/07/26 04:36:03;;;;;;;;;;;;;;;;;;;;;
2023/07/26 04:44:09;;;;;;;10.20;7.60;;;;;;;14.80;83.92;99373.16;126363;1295;635356;-61
2023/07/26 04:47:29;;;;;;;;;;;;;;;;;;;;;
2023/07/26 04:51:16;;;;;;;10.10;7.40;;;;;;;14.82;84.22;99380.66;128057;1296;115388;-61
2023/07/26 04:55:05;;;;;;;;;;;;;;;;;;;;;
2023/07/26 04:59:02;;;;;;;9.90;7.70;;;;;;;14.82;84.50;99381.59;122313;1310;114933;-63
2023/07/26 05:02:49;;;;;;;10.60;8.20;;;;;;;14.83;84.66;99381.52;126385;1311;114843;-62
2023/07/26 05:06:38;;;;;;;;;;;;;;;;;;;;;
2023/07/26 05:10:03;;;;;;;;;;;;;;;;;;;;;
2023/07/26 05:13:51;;;;;;;9.80;8.30;;;;;;;14.83;84.54;99391.42;125959;1302;114913;-62
2023/07/26 05:17:45;;;;;;;8.10;7.40;;;;;;;14.84;84.74;99397.40;125270;1316;115430;-62
2023/07/26 05:21:36;;;;;;;9.40;7.60;;;;;;;14.84;84.87;99398.50;125355;1321;114852;-62
2023/07/26 05:25:28;;;;;;;;;;;;;;;;;;;;;
2023/07/26 05:33:32;;;;;;;8.60;7.40;;;;;;;14.87;84.94;99402.60;126267;1295;636032;-61
2023/07/26 05:37:08;;;;;;;;;;;;;;;;;;;;;
2023/07/26 05:41:13;;;;;;;7.80;7.00;;;;;;;14.90;85.50;99420.35;127415;1303;114963;-62
2023/07/26 05:45:45;;;;;;;9.10;8.10;;;;;;;14.88;85.24;99423.85;125960;1308;115251;-62
2023/07/26 05:49:14;;;;;;;;;;;;;;;;;;;;;
2023/07/26 05:52:49;;;;;;;8.30;7.50;;;;;;;14.93;85.42;99425.08;124180;1331;114900;-62
2023/07/26 05:56:44;;;;;;;10.30;7.80;;;;;;;14.95;85.57;99427.07;123996;1329;114893;-62
2023/07/26 06:00:37;;;;;;;;;;;;;;;;;;;;;
2023/07/26 06:08:51;;;;;;;;;;;;;;;;;;;;;
2023/07/26 06:12:53;;;;;;;;;;;;;;;;;;;;;
2023/07/26 06:16:50;;;;;;;9.00;6.80;;;;;;;15.17;86.01;99464.14;126564;1309;114901;-64
2023/07/26 06:20:39;;;;;;;9.30;6.30;;;;;;;15.20;85.80;99467.52;122548;1295;5457021;-64
2023/07/26 06:24:24;;;;;;;;;;;;;;;;;;;;;
2023/07/26 06:28:30;;;;;;;7.30;6.60;;;;;;;15.28;86.11;99478.91;126683;1292;115179;-63
2023/07/26 06:31:59;;;;;;;11.00;7.20;;;;;;;15.31;86.09;99483.02;126102;1296;127209;-63
2023/07/26 06:36:09;;;;;;;7.90;6.60;;;;;;;15.30;85.96;99489.55;125653;1320;116267;-62
2023/07/26 06:40:01;;;;;;;6.80;6.00;;;;;;;15.31;85.69;99490.54;124901;1324;114884;-61
2023/07/26 06:43:54;;;;;;;9.10;6.00;;;;;;;15.32;85.67;99497.09;124061;1328;114989;-62
2023/07/26 06:47:49;;;;;;;;;;;;;;;;;;;;;
2023/07/26 06:51:50;;;;;;;6.20;5.40;;;;;;;15.30;85.22;99498.76;123419;1338;128003;-62
2023/07/26 06:55:50;;;;;;;;;;;;;;;;;;;;;
2023/07/26 06:59:11;;;;;;;9.40;5.90;;;;;;;15.35;85.33;99510.51;123869;1335;114952;-61
2023/07/26 07:02:56;;;;;;;;;;;;;;;;;;;;;
2023/07/26 07:06:38;;;;;;;5.60;5.10;;;;;;;15.44;85.47;99511.41;123235;1341;114913;-63
2023/07/26 07:10:59;;;;;;;7.20;5.70;;;;;;;15.49;85.27;99514.45;126278;1295;636653;-62
2023/07/26 07:14:43;;;;;;;6.10;5.50;;;;;;;15.52;85.35;99518.11;128252;1274;128883;-62
2023/07/26 07:26:27;;;;;;;;;;;;;;;;;;;;;
2023/07/26 07:30:15;;;;;;;;;;;;;;;;;;;;;
2023/07/26 07:34:01;;;;;;;6.30;5.10;;;;;;;15.80;85.40;99532.95;127557;1285;114921;-62
2023/07/26 07:41:54;;;;;;;;;;;;;;;;;;;;;
2023/07/26 07:45:36;;;;;;;7.10;5.40;;;;;;;16.11;85.71;99543.48;127066;1287;114931;-62
2023/07/26 07:49:13;;;;;;;;;;;;;;;;;;;;;
2023/07/26 07:52:58;;;;;;;;;;;;;;;;;;;;;
2023/07/26 07:56:40;;;;;;;6.60;4.80;;;;;;;16.31;85.12;99539.61;126678;1303;114777;-63
2023/07/26 08:00:23;;;;;;;5.40;4.50;;;;;;;16.33;85.24;99534.94;126246;1300;114890;-63
2023/07/26 08:03:53;;;;;;;7.80;4.40;;;;;;;16.34;85.13;99529.63;126154;1298;114872;-63
2023/07/26 08:07:39;;;;;;;6.90;4.10;;;;;;;16.38;85.19;99522.79;126647;1300;128209;-62
2023/07/26 08:11:16;;;;;;;4.20;3.80;;;;;;;16.48;85.30;99525.59;126669;1285;114754;-62
2023/07/26 08:14:49;;;;;;;4.50;4.20;;;;;;;16.60;85.40;99535.49;127437;1302;114836;-63
2023/07/26 08:18:21;;;;;;;3.90;3.30;;;;;;;16.78;85.53;99537.61;127665;1275;115301;-63
2023/07/26 08:22:07;;;;;;;4.30;3.80;;;;;;;16.94;85.30;99540.59;128034;1283;114895;-63
2023/07/26 08:25:28;;;;;;;;;;;;;;;;;;;;;
2023/07/26 08:28:57;;;;;;;4.80;4.00;;;;;;;17.43;85.33;99549.51;128257;1294;114910;-65
2023/07/26 08:32:28;;;;;;;4.70;3.80;;;;;;;17.68;85.29;99556.34;128592;1273;114993;-64
2023/07/26 08:36:24;;;;;;;;;;;;;;;;;;;;;
2023/07/26 08:39:41;;;;;;;3.30;2.90;;;;;;;17.83;82.80;99575.77;128625;1274;114857;-69
2023/07/26 08:43:22;;;;;;;;;;;;;;;;;;;;;
2023/07/26 08:47:09;;;;;;;8.40;3.60;;;;;;;17.82;82.07;99583.96;130054;1271;114841;-72
2023/07/26 08:50:12;;;;;;;6.10;3.10;;;;;;;17.86;81.41;99580.31;129656;1269;114948;-71
2023/07/26 08:53:32;;;;;;;5.20;3.50;;;;;;;17.87;81.39;99575.16;129695;1264;114949;-68
2023/07/26 08:56:39;;;;;;;5.90;3.30;;;;;;;17.92;81.19;99579.98;129648;1267;114892;-68
2023/07/26 09:00:07;;;;;;;6.60;3.40;;;;;;;17.89;80.69;99588.02;129553;1269;127849;-70
2023/07/26 09:03:32;;;;;;;4.60;2.90;;;;;;;17.74;79.94;99597.90;129407;1264;116532;-70
2023/07/26 09:07:28;;;;;;;4.50;3.50;;;;;;;17.64;80.54;99608.84;129505;1279;114867;-69
2023/07/26 09:11:30;;;;;;;8.60;5.40;;;;;;;17.55;80.63;99619.23;128942;1284;114919;-69
2023/07/26 09:15:33;;;;;;;10.00;5.50;;;;;;;17.45;80.74;99615.79;128731;1270;114938;-69
2023/07/26 09:19:40;;;;;;;8.40;5.90;;;;;;;17.45;80.86;99618.90;127620;1280;128559;-69
2023/07/26 09:23:40;;;;;;;7.40;5.50;;;;;;;17.54;81.46;99622.08;126266;1305;114701;-67
2023/07/26 09:27:44;;;;;;;8.30;6.80;;;;;;;17.71;81.52;99613.96;126157;1315;114867;-65
2023/07/26 09:31:35;;;;;;;10.30;7.10;;;;;;;18.02;81.66;99604.56;125448;1320;114895;-67
2023/07/26 09:39:44;;;;;;;11.80;6.40;;;;;;;19.06;81.08;99596.84;125502;1300;635820;-68
2023/07/26 09:43:37;;;;;;;7.40;5.40;;;;;;;19.64;81.41;99599.16;128212;1299;127520;-69
2023/07/26 09:47:44;;;;;;;7.10;4.30;;;;;;;20.00;79.02;99604.16;127468;1286;115199;-71
2023/07/26 09:51:27;;;;;;;7.30;4.50;;;;;;;20.29;78.57;99609.59;124755;1293;5438376;-69
2023/07/26 09:55:28;;;;;;;8.20;4.80;;;;;;;20.54;77.14;99606.04;126714;1295;114841;-71
2023/07/26 09:59:30;;;;;;;;;;;;;;;;;;;;;
2023/07/26 10:03:47;;;;;;;7.20;3.70;;;;;;;20.95;74.90;99604.54;126205;1293;127837;-66
2023/07/26 10:07:31;;;;;;;;;;;;;;;;;;;;;
2023/07/26 10:11:15;;;;;;;;;;;;;;;;;;;;;
2023/07/26 10:14:57;;;;;;;6.20;2.70;;;;;;;21.51;72.63;99597.79;124507;1313;114999;-74
2023/07/26 10:18:42;;;;;;;4.90;3.10;;;;;;;21.77;71.62;99590.07;124393;1316;114969;-65
2023/07/26 10:22:34;;;;;;;4.40;2.60;;;;;;;21.88;69.53;99594.38;124039;1318;127964;-69
2023/07/26 10:26:27;;;;;;;;;;;;;;;;;;;;;
2023/07/26 10:30:12;;;;;;;5.70;2.40;;;;;;;21.80;68.57;99598.29;124476;1315;115764;-67
2023/07/26 10:34:02;;;;;;;;;;;;;;;;;;;;;
2023/07/26 10:38:17;;;;;;;;;;;;;;;;;;;;;
2023/07/26 10:42:21;;;;;;;;;;;;;;;;;;;;;
2023/07/26 10:46:21;;;;;;;;;;;;;;;;;;;;;
2023/07/26 10:50:01;;;;;;;;;;;;;;;;;;;;;
2023/07/26 10:53:47;;;;;;;;;;;;;;;;;;;;;
2023/07/26 10:57:21;;;;;;;;;;;;;;;;;;;;;
2023/07/26 11:01:12;;;;;;;4.30;1.60;;;;;;;22.47;63.54;99608.90;124292;1316;129935;-69
2023/07/26 11:05:09;;;;;;;;;;;;;;;;;;;;;
2023/07/26 11:09:27;;;;;;;;;;;;;;;;;;;;;
2023/07/26 11:13:32;;;;;;;5.30;1.50;;;;;;;22.72;60.59;99615.74;127831;1279;127744;-70
2023/07/26 11:17:11;;;;;;;;;;;;;;;;;;;;;
2023/07/26 11:20:57;;;;;;;;;;;;;;;;;;;;;
2023/07/26 11:25:02;;;;;;;3.00;1.60;;;;;;;22.94;58.67;99602.77;122627;1290;115011;-71
2023/07/26 11:29:00;;;;;;;3.30;1.60;;;;;;;22.80;57.93;99596.98;126997;1300;114922;-68
2023/07/26 11:33:09;;;;;;;4.50;1.70;;;;;;;22.68;58.45;99594.59;126288;1295;114928;-70
2023/07/26 11:37:12;;;;;;;7.80;1.70;;;;;;;22.62;57.57;99591.35;125594;1322;127836;-68
2023/07/26 11:41:04;;;;;;;;;;;;;;;;;;;;;
2023/07/26 11:44:51;;;;;;;7.90;1.90;;;;;;;22.73;57.87;99596.56;123928;1335;115400;-71
2023/07/26 11:49:17;;;;;;;;;;;;;;;;;;;;;
2023/07/26 11:53:02;;;;;;;6.20;1.70;;;;;;;22.73;56.58;99598.73;127809;1284;128130;-70
2023/07/26 11:56:51;;;;;;;;;;;;;;;;;;;;;
2023/07/26 12:00:54;;;;;;;;;;;;;;;;;;;;;
2023/07/26 12:04:56;;;;;;;7.70;1.60;;;;;;;22.16;55.15;99595.11;122385;1298;115356;-67
2023/07/26 12:08:57;;;;;;;4.80;1.60;;;;;;;22.03;54.23;99589.09;125676;1301;115003;-72
2023/07/26 12:12:51;;;;;;;;;;;;;;;;;;;;;
2023/07/26 12:16:46;;;;;;;;;;;;;;;;;;;;;
2023/07/26 12:21:07;;;;;;;3.90;1.20;;;;;;;21.69;54.05;99594.41;126620;1301;635437;-67
2023/07/26 12:25:01;;;;;;;;;;;;;;;;;;;;;
2023/07/26 12:28:50;;;;;;;;;;;;;;;;;;;;;
2023/07/26 12:33:04;;;;;;;7.10;1.60;;;;;;;21.13;53.82;99601.55;123106;1292;5526645;-72
2023/07/26 12:37:00;;;;;;;;;;;;;;;;;;;;;
2023/07/26 12:40:54;;;;;;;;;;;;;;;;;;;;;
2023/07/26 12:44:55;;;;;;;;;;;;;;;;;;;;;
2023/07/26 12:49:21;;;;;;;2.20;1.30;;;;;;;21.50;53.69;99612.77;126567;1305;636110;-66
2023/07/26 12:53:24;;;;;;;2.40;1.00;;;;;;;21.56;52.68;99614.05;128406;1288;127854;-71
2023/07/26 12:57:26;;;;;;;2.20;1.30;;;;;;;21.60;51.82;99618.83;127626;1303;114870;-72
2023/07/26 13:01:33;;;;;;;2.40;1.00;;;;;;;21.74;51.88;99621.51;122539;1292;5995119;-67
2023/07/26 13:05:16;;;;;;;3.10;1.30;;;;;;;21.86;50.97;99623.45;125237;1311;114959;-71
2023/07/26 13:09:19;;;;;;;3.00;1.40;;;;;;;21.96;50.92;99621.50;124975;1325;114987;-73
2023/07/26 13:17:44;;;;;;;4.10;1.40;;;;;;;22.31;50.32;99624.75;126112;1297;635931;-72
2023/07/26 13:21:50;;;;;;;2.50;1.00;;;;;;;22.49;50.79;99623.70;129149;1274;126557;-70
2023/07/26 13:25:52;;;;;;;1.70;1.30;;;;;;;22.70;50.60;99627.98;128837;1276;115298;-69
2023/07/26 13:29:55;;;;;;;1.50;0.80;;;;;;;22.82;49.77;99617.60;124807;1276;5524227;-70
2023/07/26 13:33:59;;;;;;;3.90;1.10;;;;;;;22.89;49.90;99606.73;128116;1301;115030;-74
2023/07/26 13:38:00;;;;;;;4.50;1.00;;;;;;;22.84;49.43;99600.05;127313;1306;114863;-70
2023/07/26 13:42:01;;;;;;;1.20;0.90;;;;;;;22.69;48.71;99601.20;126855;1294;114909;-70
2023/07/26 13:45:41;;;;;;;;;;;;;;;;;;;;;
2023/07/26 13:49:34;;;;;;;;;;;;;;;;;;;;;
2023/07/26 13:53:13;;;;;;;3.40;1.20;;;;;;;22.27;48.62;99602.69;126620;1302;636016;-72
2023/07/26 13:57:08;;;;;;;;;;;;;;;;;;;;;
2023/07/26 14:01:01;;;;;;;;;;;;;;;;;;;;;
2023/07/26 14:04:50;;;;;;;;;;;;;;;;;;;;;
2023/07/26 14:08:42;;;;;;;;;;;;;;;;;;;;;
2023/07/26 14:12:18;;;;;;;3.50;1.30;;;;;;;21.89;47.77;99607.85;126867;1290;115012;-71
2023/07/26 14:16:22;;;;;;;3.20;1.30;;;;;;;21.82;48.70;99609.20;126516;1306;114975;-71
2023/07/26 14:20:22;;;;;;;3.70;1.20;;;;;;;21.74;48.41;99610.56;125626;1315;129855;-67
2023/07/26 14:24:08;;;;;;;2.00;1.10;;;;;;;21.68;48.87;99607.38;125331;1310;116448;-71
2023/07/26 14:27:41;;;;;;;3.50;1.10;;;;;;;21.70;48.30;99613.32;124539;1314;114993;-74
2023/07/26 14:31:41;;;;;;;;;;;;;;;;;;;;;
2023/07/26 14:35:28;;;;;;;;;;;;;;;;;;;;;
2023/07/26 14:39:43;;;;;;;3.10;1.40;;;;;;;21.90;46.28;99606.19;125658;1298;640355;-68
2023/07/26 14:43:46;;;;;;;2.50;1.10;;;;;;;21.87;45.76;99606.08;128724;1274;126836;-70
2023/07/26 14:47:48;;;;;;;3.90;1.30;;;;;;;21.80;45.82;99610.45;127799;1287;115158;-67
2023/07/26 14:51:53;;;;;;;;;;;;;;;;;;;;;
2023/07/26 15:04:37;;;;;;;1.30;1.20;;;;;;;21.38;46.57;99603.49;125901;1302;638470;-69
2023/07/26 15:12:44;;;;;;;3.30;1.60;;;;;;;21.17;46.55;99603.13;126249;1296;115477;-67
2023/07/26 15:16:45;;;;;;;2.40;1.30;;;;;;;21.12;45.85;99601.84;121350;1308;5467947;-69
2023/07/26 15:24:36;;;;;;;3.70;1.50;;;;;;;21.09;45.59;99599.41;126973;1289;635948;-70
2023/07/26 15:28:30;;;;;;;;;;;;;;;;;;;;;
2023/07/26 15:32:34;;;;;;;2.60;1.40;;;;;;;20.98;45.30;99597.48;128433;1281;114821;-67
2023/07/26 15:37:06;;;;;;;1.90;1.40;;;;;;;20.92;45.61;99597.39;126860;1301;114840;-68
2023/07/26 15:40:41;;;;;;;4.30;1.40;;;;;;;20.88;45.08;99602.55;123621;1303;115111;-72
2023/07/26 15:44:35;;;;;;;2.30;1.10;;;;;;;20.83;44.99;99604.19;125175;1324;114891;-70
2023/07/26 15:52:53;;;;;;;;;;;;;;;;;;;;;
2023/07/26 15:56:47;;;;;;;;;;;;;;;;;;;;;
2023/07/26 16:00:49;;;;;;;;;;;;;;;;;;;;;
2023/07/26 16:04:24;;;;;;;2.60;1.30;;;;;;;20.71;44.43;99596.11;122580;1289;5459930;-71
2023/07/26 16:08:16;;;;;;;;;;;;;;;;;;;;;
2023/07/26 16:12:19;;;;;;;2.70;1.30;;;;;;;20.66;45.07;99593.14;126295;1298;114836;-68
2023/07/26 16:16:20;;;;;;;3.40;1.70;;;;;;;20.61;44.98;99598.36;125651;1301;114972;-74
2023/07/26 16:20:01;;;;;;;2.20;1.30;;;;;;;20.53;44.87;99597.59;125075;1304;130315;-66
2023/07/26 16:23:27;;;;;;;3.20;1.50;;;;;;;20.47;45.31;99599.99;125212;1318;115398;-65
2023/07/26 16:26:34;;;;;;;3.30;1.60;;;;;;;20.42;45.15;99598.35;125281;1304;114843;-74
2023/07/26 16:30:20;;;;;;;4.10;1.40;;;;;;;20.37;45.29;99601.16;125328;1304;114877;-72
2023/07/26 16:34:21;;;;;;;4.10;1.80;;;;;;;20.30;44.89;99597.13;125956;1298;114882;-73
2023/07/26 16:38:13;;;;;;;;;;;;;;;;;;;;;
2023/07/26 16:42:03;;;;;;;1.60;1.50;;;;;;;20.16;45.32;99600.24;125270;1301;115371;-67
2023/07/26 16:50:36;;;;;;;3.30;1.80;;;;;;;20.07;45.36;99602.70;125930;1297;639705;-65
2023/07/26 16:54:25;;;;;;;2.00;1.20;;;;;;;20.01;45.29;99609.88;128320;1280;128683;-72
2023/07/26 16:58:18;;;;;;;;;;;;;;;;;;;;;
2023/07/26 17:02:10;;;;;;;;;;;;;;;;;;;;;
2023/07/26 17:05:33;;;;;;;;;;;;;;;;;;;;;
2023/07/26 17:09:32;;;;;;;;;;;;;;;;;;;;;
2023/07/26 17:13:25;;;;;;;3.10;1.20;;;;;;;19.74;47.13;99617.04;125127;1305;129759;-73
2023/07/26 17:17:07;;;;;;;;;;;;;;;;;;;;;
2023/07/26 17:25:19;;;;;;;;;;;;;;;;;;;;;
2023/07/26 17:28:42;;;;;;;7.70;1.60;;;;;;;19.29;47.81;99620.17;129462;1266;128713;-73
2023/07/26 17:32:25;;;;;;;6.10;1.60;;;;;;;19.18;47.93;99626.48;129735;1264;114731;-66
2023/07/26 17:36:01;;;;;;;;;;;;;;;;;;;;;
2023/07/26 17:40:04;;;;;;;5.20;1.50;;;;;;;18.95;48.78;99637.13;124650;1275;5458229;-75
2023/07/26 17:44:11;;;;;;;2.90;1.90;;;;;;;18.80;48.52;99637.11;127471;1286;114945;-70
2023/07/26 17:47:46;;;;;;;4.70;1.80;;;;;;;18.68;49.34;99639.52;125814;1314;114972;-67
2023/07/26 17:51:48;;;;;;;6.40;1.70;;;;;;;18.55;49.57;99644.33;124971;1310;129679;-66
2023/07/26 18:00:06;;;;;;;3.50;1.50;;;;;;;18.31;50.81;99658.86;125739;1301;641914;-64
2023/07/26 18:03:57;;;;;;;2.80;1.50;;;;;;;18.15;51.06;99667.77;127883;1284;127969;-72
2023/07/26 18:08:01;;;;;;;3.20;1.70;;;;;;;18.02;51.15;99674.61;127229;1290;115220;-74
2023/07/26 18:11:43;;;;;;;;;;;;;;;;;;;;;
2023/07/26 18:19:36;;;;;;;;;;;;;;;;;;;;;
2023/07/26 18:27:53;;;;;;;3.90;2.10;;;;;;;17.40;50.74;99702.87;125851;1310;636350;-73
2023/07/26 18:32:01;;;;;;;2.20;1.50;;;;;;;17.25;51.34;99706.41;128052;1296;127156;-67
2023/07/26 18:36:03;;;;;;;3.90;1.60;;;;;;;17.11;51.45;99715.73;128015;1283;115496;-69
2023/07/26 18:39:58;;;;;;;;;;;;;;;;;;;;;
2023/07/26 18:43:59;;;;;;;3.70;1.60;;;;;;;16.84;52.01;99726.98;126223;1300;114813;-74
2023/07/26 18:47:45;;;;;;;;;;;;;;;;;;;;;
2023/07/26 18:56:11;;;;;;;;;;;;;;;;;;;;;
2023/07/26 19:00:04;;;;;;;;;;;;;;;;;;;;;
2023/07/26 19:07:57;;;;;;;;;;;;;;;;;;;;;
2023/07/26 19:12:09;;;;;;;2.40;1.60;;;;;;;15.91;54.61;99756.77;125793;1303;115246;-67
2023/07/26 19:16:03;;;;;;;5.40;1.90;;;;;;;15.75;54.58;99756.02;125135;1326;114901;-65
2023/07/26 19:20:04;;;;;;;7.90;4.50;;;;;;;15.59;55.02;99760.35;124982;1324;114885;-75
2023/07/26 19:28:24;;;;;;;4.10;2.00;;;;;;;15.33;55.64;99772.52;127119;1295;636138;-67
2023/07/26 19:32:27;;;;;;;3.00;2.10;;;;;;;15.16;55.61;99779.55;128339;1292;128925;-75
2023/07/26 19:36:35;;;;;;;5.40;2.20;;;;;;;15.01;56.15;99781.94;127922;1284;115189;-64
2023/07/26 19:40:35;;;;;;;3.90;2.70;;;;;;;14.87;56.33;99787.33;123070;1300;5439132;-73
2023/07/26 19:44:39;;;;;;;11.40;4.20;;;;;;;14.72;56.64;99797.59;126649;1292;114941;-73
2023/07/26 19:48:42;;;;;;;3.60;2.00;;;;;;;14.58;56.91;99801.33;125871;1302;114910;-70
2023/07/26 19:57:04;;;;;;;;;;;;;;;;;;;;;
2023/07/26 20:01:09;;;;;;;4.80;1.90;;;;;;;14.21;58.21;99820.19;127953;1280;128180;-72
2023/07/26 20:13:01;;;;;;;3.90;2.20;;;;;;;13.84;58.88;99826.56;125712;1300;115130;-71
2023/07/26 20:17:24;;;;;;;2.30;1.80;;;;;;;13.75;58.87;99830.77;125768;1307;114916;-73
2023/07/26 20:21:01;;;;;;;;;;;;;;;;;;;;;
2023/07/26 20:24:43;;;;;;;;;;;;;;;13.57;59.56;99832.05;125672;1304;130093;-72
2023/07/26 20:28:43;;;;;;;5.10;3.60;;;;;;;13.49;59.61;99839.59;125743;1317;115249;-71
2023/07/26 20:41:01;;;;;;;3.90;2.20;;;;;;;13.29;60.40;99853.48;127171;1284;128376;-71
2023/07/26 20:45:03;;;;;;;3.60;2.60;;;;;;;13.23;60.64;99859.65;126502;1295;116701;-69
2023/07/26 20:49:09;;;;;;;;;;;;;;;;;;;;;
2023/07/26 20:53:03;;;;;;;3.50;1.80;;;;;;;13.07;61.30;99850.10;125481;1307;114975;-69
2023/07/26 20:56:48;;;;;;;;;;;;;;;;;;;;;
2023/07/26 21:05:07;;;;;;;;;;;;;;;;;;;;;
2023/07/26 21:08:53;;;;;;;2.80;2.00;;;;;;;12.78;62.22;99846.46;129343;1283;128945;-71
2023/07/26 21:16:42;;;;;;;3.50;2.10;;;;;;;12.64;62.86;99850.30;128794;1275;114930;-68
2023/07/26 21:20:23;;;;;;;3.30;2.30;;;;;;;12.56;63.25;99855.63;124052;1284;114826;-70
2023/07/26 21:24:27;;;;;;;5.80;2.60;;;;;;;12.49;63.77;99864.50;127157;1290;114840;-70
2023/07/26 21:28:11;;;;;;;7.00;1.90;;;;;;;12.41;63.96;99860.91;126201;1296;114912;-72
2023/07/26 21:31:54;;;;;;;3.90;2.60;;;;;;;12.34;63.83;99864.56;126266;1296;128207;-72
2023/07/26 21:35:55;;;;;;;3.20;2.10;;;;;;;12.26;64.32;99867.36;126068;1301;114773;-68
2023/07/26 21:39:57;;;;;;;3.70;2.00;;;;;;;12.19;64.67;99877.13;124547;1321;114949;-69
2023/07/26 21:48:07;;;;;;;7.40;2.40;;;;;;;12.09;65.20;99884.23;126692;1292;635903;-67
2023/07/26 21:52:03;;;;;;;4.40;2.70;;;;;;;12.00;65.37;99887.96;127557;1285;128713;-68
2023/07/26 21:56:05;;;;;;;3.60;2.20;;;;;;;11.93;65.68;99884.95;126930;1290;115110;-68
2023/07/26 22:00:06;;;;;;;;;;;;;;;;;;;;;
2023/07/26 22:04:00;;;;;;;;;;;;;;;;;;;;;
2023/07/26 22:08:21;;;;;;;5.20;3.50;;;;;;;11.78;66.51;99894.14;126121;1297;636522;-68
2023/07/26 22:12:06;;;;;;;;;;;;;;;;;;;;;
2023/07/26 22:16:10;;;;;;;7.90;4.40;;;;;;;11.68;67.34;99899.89;128216;1280;115214;-69
2023/07/26 22:20:16;;;;;;;6.70;3.60;;;;;;;11.64;67.35;99896.04;126270;1289;5447103;-69
2023/07/26 22:28:38;;;;;;;4.80;3.40;;;;;;;11.58;67.97;99904.43;126704;1290;636384;-69
2023/07/26 22:32:39;;;;;;;5.90;3.60;;;;;;;11.52;68.53;99910.16;128737;1276;128828;-68
2023/07/26 22:36:36;;;;;;;;;;;;;;;;;;;;;
2023/07/26 22:40:40;;;;;;;7.60;3.40;;;;;;;11.44;68.80;99916.70;124200;1281;5449504;-69
2023/07/26 22:44:42;;;;;;;4.80;3.40;;;;;;;11.40;69.14;99913.02;126029;1298;114953;-68
2023/07/26 22:53:00;;;;;;;;;;;;;;;;;;;;;
2023/07/26 22:57:01;;;;;;;;;;;;;;;;;;;;;
2023/07/26 23:01:06;;;;;;;6.80;4.30;;;;;;;11.27;70.28;99920.95;127234;1303;114865;-68
2023/07/26 23:05:13;;;;;;;5.20;3.90;;;;;;;11.22;70.49;99924.39;122606;1295;5444091;-69
2023/07/26 23:09:14;;;;;;;4.90;3.50;;;;;;;11.19;70.65;99921.91;125802;1320;114885;-64
2023/07/26 23:13:13;;;;;;;;;;;;;;;;;;;;;
2023/07/26 23:17:34;;;;;;;6.00;3.10;;;;;;;11.17;70.83;99925.66;126342;1295;635980;-68
2023/07/26 23:21:36;;;;;;;6.80;3.20;;;;;;;11.12;70.71;99932.71;127739;1284;128004;-67
2023/07/26 23:25:27;;;;;;;;;;;;;;;;;;;;;
2023/07/26 23:29:30;;;;;;;5.50;3.50;;;;;;;11.05;71.45;99928.27;120786;1320;6354294;-68
2023/07/26 23:38:15;;;;;;;6.10;3.60;;;;;;;11.00;71.65;99934.61;126680;1303;636703;-67
2023/07/26 23:41:44;;;;;;;;;;;;;;;;;;;;;
2023/07/26 23:45:48;;;;;;;6.70;4.20;;;;;;;10.89;72.20;99932.54;126690;1290;114977;-67
2023/07/26 23:49:49;;;;;;;6.30;5.00;;;;;;;10.86;72.13;99934.55;122122;1318;5413972;-69
2023/07/26 23:57:58;;;;;;;9.20;5.10;;;;;;;10.83;72.83;99932.23;126330;1293;635989;-65
